Time,TemperatureF,DewpointF,PressureIn,WindDirection,WindDirectionDegrees,WindSpeedMPH,WindSpeedGustMPH,Humidity,HourlyPrecipIn,Conditions,Clouds,dailyrainin,SoftwareType,DateUTC
2013-03-05 00:00:00,37.8,22.6,30.28,East,96,0.0,0.0,54,0.00,,,0.00,Wunderground v.1.15,2013-03-05 07:00:00,
2013-03-05 00:10:00,37.4,22.7,30.28,East,96,0.0,0.0,55,0.00,,,0.00,Wunderground v.1.15,2013-03-05 07:10:00,
2013-03-05 00:20:00,37.5,22.3,30.28,SE,143,2.0,2.0,54,0.00,,,0.00,Wunderground v.1.15,2013-03-05 07:20:00,
2013-03-05 00:25:00,37.5,22.3,30.28,SSE,155,2.0,2.0,54,0.00,,,0.00,Wunderground v.1.15,2013-03-05 07:25:00,
2013-03-05 00:30:00,36.6,21.5,30.28,South,173,1.0,2.0,54,0.00,,,0.00,Wunderground v.1.15,2013-03-05 07:30:00,
2013-03-05 00:40:00,35.9,22.1,30.28,SSW,202,3.0,6.0,57,0.00,,,0.00,Wunderground v.1.15,2013-03-05 07:40:00,
2013-03-05 00:45:00,35.4,22.5,30.28,SSW,194,6.0,6.0,59,0.00,,,0.00,Wunderground v.1.15,2013-03-05 07:45:00,
2013-03-05 00:50:00,35.4,22.5,30.28,SSW,194,6.0,6.0,59,0.00,,,0.00,Wunderground v.1.15,2013-03-05 07:50:00,
2013-03-05 00:55:00,35.4,22.5,30.28,SSW,192,5.0,6.0,59,0.00,,,0.00,Wunderground v.1.15,2013-03-05 07:55:00,
2013-03-05 01:00:00,35.5,23.0,30.28,SSW,194,6.0,7.0,60,0.00,,,0.00,Wunderground v.1.15,2013-03-05 08:00:00,
2013-03-05 01:10:00,36.2,23.2,30.28,SSW,207,7.0,7.0,59,0.00,,,0.00,Wunderground v.1.15,2013-03-05 08:10:00,
2013-03-05 01:20:00,36.2,22.8,30.28,South,190,5.0,5.0,58,0.00,,,0.00,Wunderground v.1.15,2013-03-05 08:20:00,
2013-03-05 01:25:00,35.9,23.0,30.28,South,190,5.0,6.0,59,0.00,,,0.00,Wunderground v.1.15,2013-03-05 08:25:00,
2013-03-05 01:30:00,36.0,23.4,30.28,South,191,5.0,6.0,60,0.00,,,0.00,Wunderground v.1.15,2013-03-05 08:30:00,
2013-03-05 01:40:00,36.0,23.4,30.28,SSW,195,6.0,6.0,60,0.00,,,0.00,Wunderground v.1.15,2013-03-05 08:40:00,
2013-03-05 01:50:00,36.0,23.4,30.28,SSW,198,6.0,6.0,60,0.00,,,0.00,Wunderground v.1.15,2013-03-05 08:50:00,
2013-03-05 01:55:00,36.0,23.4,30.28,SSW,201,5.0,6.0,60,0.00,,,0.00,Wunderground v.1.15,2013-03-05 08:55:00,
2013-03-05 02:00:00,35.6,23.1,30.28,SSW,198,5.0,7.0,60,0.00,,,0.00,Wunderground v.1.15,2013-03-05 09:00:00,
2013-03-05 02:10:00,35.7,23.2,30.28,SSW,205,6.0,6.0,60,0.00,,,0.00,Wunderground v.1.15,2013-03-05 09:10:00,
2013-03-05 02:15:00,35.8,23.3,30.28,SSW,192,6.0,6.0,60,0.00,,,0.00,Wunderground v.1.15,2013-03-05 09:15:00,
2013-03-05 02:20:00,35.7,23.2,30.28,SSW,193,6.0,6.0,60,0.00,,,0.00,Wunderground v.1.15,2013-03-05 09:20:00,
2013-03-05 02:25:00,35.9,23.4,30.28,South,191,5.0,6.0,60,0.00,,,0.00,Wunderground v.1.15,2013-03-05 09:25:00,
2013-03-05 02:30:00,35.7,23.6,30.28,SSW,194,4.0,7.0,61,0.00,,,0.00,Wunderground v.1.15,2013-03-05 09:30:00,
2013-03-05 02:35:00,35.7,23.9,30.28,SSW,193,5.0,7.0,62,0.00,,,0.00,Wunderground v.1.15,2013-03-05 09:35:00,
2013-03-05 02:40:00,36.0,23.8,30.28,SSW,192,5.0,5.0,61,0.00,,,0.00,Wunderground v.1.15,2013-03-05 09:40:00,
2013-03-05 02:45:00,36.2,24.0,30.28,South,190,3.0,5.0,61,0.00,,,0.00,Wunderground v.1.15,2013-03-05 09:45:00,
2013-03-05 02:50:00,36.1,23.5,30.28,South,190,4.0,6.0,60,0.00,,,0.00,Wunderground v.1.15,2013-03-05 09:50:00,
2013-03-05 02:55:00,35.8,23.7,30.28,SSW,192,4.0,6.0,61,0.00,,,0.00,Wunderground v.1.15,2013-03-05 09:55:00,
2013-03-05 03:00:00,35.5,23.8,30.28,SSW,192,4.0,5.0,62,0.00,,,0.00,Wunderground v.1.15,2013-03-05 10:00:00,
2013-03-05 03:10:00,35.5,24.1,30.28,SSW,196,5.0,6.0,63,0.00,,,0.00,Wunderground v.1.15,2013-03-05 10:10:00,
2013-03-05 03:15:00,35.4,24.0,30.28,SSW,194,5.0,7.0,63,0.00,,,0.00,Wunderground v.1.15,2013-03-05 10:15:00,
2013-03-05 03:25:00,35.5,24.1,30.28,SSW,197,6.0,6.0,63,0.00,,,0.00,Wunderground v.1.15,2013-03-05 10:25:00,
2013-03-05 03:30:00,35.4,24.0,30.28,SSW,194,5.0,5.0,63,0.00,,,0.00,Wunderground v.1.15,2013-03-05 10:30:00,
2013-03-05 03:35:00,35.4,24.4,30.28,SSW,194,5.0,5.0,64,0.00,,,0.00,Wunderground v.1.15,2013-03-05 10:35:00,
2013-03-05 03:40:00,35.3,24.3,30.28,SSW,194,4.0,4.0,64,0.00,,,0.00,Wunderground v.1.15,2013-03-05 10:40:00,
2013-03-05 03:45:00,35.0,24.4,30.28,SSW,196,4.0,5.0,65,0.00,,,0.00,Wunderground v.1.15,2013-03-05 10:45:00,
2013-03-05 03:50:00,34.8,24.6,30.28,SSW,198,5.0,5.0,66,0.00,,,0.00,Wunderground v.1.15,2013-03-05 10:50:00,
2013-03-05 03:55:00,34.6,24.4,30.28,SSW,198,5.0,6.0,66,0.00,,,0.00,Wunderground v.1.15,2013-03-05 10:55:00,
2013-03-05 04:00:00,34.5,24.7,30.28,SSW,200,6.0,6.0,67,0.00,,,0.00,Wunderground v.1.15,2013-03-05 11:00:00,
2013-03-05 04:10:00,35.1,24.9,30.28,SSW,202,5.0,5.0,66,0.00,,,0.00,Wunderground v.1.15,2013-03-05 11:10:00,
2013-03-05 04:15:00,35.0,24.8,30.28,South,188,4.0,5.0,66,0.00,,,0.00,Wunderground v.1.15,2013-03-05 11:15:00,
2013-03-05 04:20:00,34.8,25.3,30.28,SSW,209,2.0,2.0,68,0.00,,,0.00,Wunderground v.1.15,2013-03-05 11:20:00,
2013-03-05 04:25:00,34.9,25.4,30.28,North,349,1.0,2.0,68,0.00,,,0.00,Wunderground v.1.15,2013-03-05 11:25:00,
2013-03-05 04:30:00,35.4,25.5,30.28,NNW,348,0.0,0.0,67,0.00,,,0.00,Wunderground v.1.15,2013-03-05 11:30:00,
2013-03-05 04:35:00,35.0,25.1,30.28,NNW,348,0.0,0.0,67,0.00,,,0.00,Wunderground v.1.15,2013-03-05 11:35:00,
2013-03-05 04:40:00,34.5,24.7,30.28,NNW,348,0.0,0.0,67,0.00,,,0.00,Wunderground v.1.15,2013-03-05 11:40:00,
2013-03-05 04:45:00,34.0,24.2,30.28,NNW,348,0.0,0.0,67,0.00,,,0.00,Wunderground v.1.15,2013-03-05 11:45:00,
2013-03-05 04:50:00,33.5,23.7,30.28,NNW,348,0.0,0.0,67,0.00,,,0.00,Wunderground v.1.15,2013-03-05 11:50:00,
2013-03-05 04:55:00,32.9,23.5,30.28,NNW,348,0.0,0.0,68,0.00,,,0.00,Wunderground v.1.15,2013-03-05 11:55:00,
2013-03-05 05:00:00,32.4,23.4,30.28,SSW,197,0.0,5.0,69,0.00,,,0.00,Wunderground v.1.15,2013-03-05 12:00:00,
2013-03-05 05:10:00,32.0,23.0,30.28,South,183,3.0,3.0,69,0.00,,,0.00,Wunderground v.1.15,2013-03-05 12:10:00,
2013-03-05 05:15:00,31.8,22.8,30.28,South,183,1.0,3.0,69,0.00,,,0.00,Wunderground v.1.15,2013-03-05 12:15:00,
2013-03-05 05:25:00,31.1,22.5,30.28,South,183,0.0,1.0,70,0.00,,,0.00,Wunderground v.1.15,2013-03-05 12:25:00,
2013-03-05 05:30:00,30.8,22.5,30.28,South,183,0.0,0.0,71,0.00,,,0.00,Wunderground v.1.15,2013-03-05 12:30:00,
2013-03-05 05:35:00,30.8,23.2,30.28,South,183,0.0,0.0,73,0.00,,,0.00,Wunderground v.1.15,2013-03-05 12:35:00,
2013-03-05 05:40:00,30.8,22.8,30.28,South,183,0.0,0.0,72,0.00,,,0.00,Wunderground v.1.15,2013-03-05 12:40:00,
2013-03-05 05:45:00,30.4,22.1,30.28,South,183,0.0,0.0,71,0.00,,,0.00,Wunderground v.1.15,2013-03-05 12:45:00,
2013-03-05 05:50:00,30.2,22.6,30.28,South,183,0.0,0.0,73,0.00,,,0.00,Wunderground v.1.15,2013-03-05 12:50:00,
2013-03-05 05:55:00,30.1,22.5,30.28,South,180,0.0,2.0,73,0.00,,,0.00,Wunderground v.1.15,2013-03-05 12:55:00,
2013-03-05 06:00:00,30.3,23.3,30.28,South,180,0.0,0.0,75,0.00,,,0.00,Wunderground v.1.15,2013-03-05 13:00:00,
2013-03-05 06:10:00,33.7,26.3,30.28,South,187,2.0,3.0,74,0.00,,,0.00,Wunderground v.1.15,2013-03-05 13:10:00,
2013-03-05 06:15:00,34.7,25.9,30.28,South,183,2.0,3.0,70,0.00,,,0.00,Wunderground v.1.15,2013-03-05 13:15:00,
2013-03-05 06:20:00,35.3,25.8,30.28,South,184,2.0,2.0,68,0.00,,,0.00,Wunderground v.1.15,2013-03-05 13:20:00,
2013-03-05 06:25:00,35.3,25.4,30.28,South,184,2.0,4.0,67,0.00,,,0.00,Wunderground v.1.15,2013-03-05 13:25:00,
2013-03-05 06:30:00,35.6,26.1,30.28,South,184,3.0,4.0,68,0.00,,,0.00,Wunderground v.1.15,2013-03-05 13:30:00,
2013-03-05 06:35:00,35.5,25.6,30.28,South,184,3.0,4.0,67,0.00,,,0.00,Wunderground v.1.15,2013-03-05 13:35:00,
2013-03-05 06:40:00,35.2,25.7,30.28,South,184,2.0,2.0,68,0.00,,,0.00,Wunderground v.1.15,2013-03-05 13:40:00,
2013-03-05 06:45:00,35.4,25.9,30.28,South,184,2.0,3.0,68,0.00,,,0.00,Wunderground v.1.15,2013-03-05 13:45:00,
2013-03-05 06:50:00,35.6,25.7,30.28,South,184,1.0,1.0,67,0.00,,,0.00,Wunderground v.1.15,2013-03-05 13:50:00,
2013-03-05 06:55:00,35.9,26.0,30.28,South,184,0.0,1.0,67,0.00,,,0.00,Wunderground v.1.15,2013-03-05 13:55:00,
2013-03-05 07:00:00,35.9,26.0,30.28,South,184,1.0,3.0,67,0.00,,,0.00,Wunderground v.1.15,2013-03-05 14:00:00,
2013-03-05 07:10:00,37.0,27.1,30.28,South,184,1.0,1.0,67,0.00,,,0.00,Wunderground v.1.15,2013-03-05 14:10:00,
2013-03-05 07:15:00,37.2,27.6,30.28,South,184,0.0,1.0,68,0.00,,,0.00,Wunderground v.1.15,2013-03-05 14:15:00,
2013-03-05 07:20:00,37.6,27.6,30.28,South,184,0.0,0.0,67,0.00,,,0.00,Wunderground v.1.15,2013-03-05 14:20:00,
2013-03-05 07:25:00,38.4,27.3,30.28,South,184,0.0,0.0,64,0.00,,,0.00,Wunderground v.1.15,2013-03-05 14:25:00,
2013-03-05 07:30:00,39.1,27.6,30.28,South,184,0.0,0.0,63,0.00,,,0.00,Wunderground v.1.15,2013-03-05 14:30:00,
2013-03-05 07:35:00,39.9,27.5,30.28,South,184,0.0,0.0,61,0.00,,,0.00,Wunderground v.1.15,2013-03-05 14:35:00,
2013-03-05 07:40:00,41.0,29.4,30.28,South,184,0.0,0.0,63,0.00,,,0.00,Wunderground v.1.15,2013-03-05 14:40:00,
2013-03-05 07:45:00,41.6,29.1,30.28,South,184,0.0,0.0,61,0.00,,,0.00,Wunderground v.1.15,2013-03-05 14:45:00,
2013-03-05 07:55:00,42.4,29.1,30.28,South,184,0.0,0.0,59,0.00,,,0.00,Wunderground v.1.15,2013-03-05 14:55:00,
2013-03-05 08:00:00,42.6,29.7,30.28,South,184,0.0,0.0,60,0.00,,,0.00,Wunderground v.1.15,2013-03-05 15:00:00,
2013-03-05 08:10:00,42.9,29.5,30.28,South,184,0.0,0.0,59,0.00,,,0.00,Wunderground v.1.15,2013-03-05 15:10:00,
2013-03-05 08:20:00,43.7,29.9,30.28,South,184,0.0,0.0,58,0.00,,,0.00,Wunderground v.1.15,2013-03-05 15:20:00,
2013-03-05 08:25:00,44.3,30.0,30.28,South,184,0.0,0.0,57,0.00,,,0.00,Wunderground v.1.15,2013-03-05 15:25:00,
2013-03-05 08:35:00,45.0,30.2,30.28,South,184,0.0,0.0,56,0.00,,,0.00,Wunderground v.1.15,2013-03-05 15:35:00,
2013-03-05 08:40:00,45.7,31.3,30.28,South,184,0.0,0.0,57,0.00,,,0.00,Wunderground v.1.15,2013-03-05 15:40:00,
2013-03-05 08:45:00,46.2,30.9,30.28,South,184,0.0,0.0,55,0.00,,,0.00,Wunderground v.1.15,2013-03-05 15:45:00,
2013-03-05 08:50:00,46.6,30.8,30.28,South,184,0.0,0.0,54,0.00,,,0.00,Wunderground v.1.15,2013-03-05 15:50:00,
2013-03-05 08:55:00,47.0,31.7,30.28,South,184,0.0,0.0,55,0.00,,,0.00,Wunderground v.1.15,2013-03-05 15:55:00,
2013-03-05 09:00:00,47.1,32.2,30.28,South,184,0.0,0.0,56,0.00,,,0.00,Wunderground v.1.15,2013-03-05 16:00:00,
2013-03-05 09:10:00,48.1,32.2,30.28,South,184,0.0,0.0,54,0.00,,,0.00,Wunderground v.1.15,2013-03-05 16:10:00,
2013-03-05 09:15:00,48.7,33.7,30.28,South,184,0.0,0.0,56,0.00,,,0.00,Wunderground v.1.15,2013-03-05 16:15:00,
2013-03-05 09:25:00,50.1,32.2,30.28,North,350,2.0,2.0,50,0.00,,,0.00,Wunderground v.1.15,2013-03-05 16:25:00,
2013-03-05 09:30:00,50.7,31.2,30.28,NNW,340,2.0,2.0,47,0.00,,,0.00,Wunderground v.1.15,2013-03-05 16:30:00,
2013-03-05 09:40:00,52.0,31.3,30.28,NNW,340,0.0,1.0,45,0.00,,,0.00,Wunderground v.1.15,2013-03-05 16:40:00,
2013-03-05 09:45:00,52.8,30.9,30.28,NNW,340,1.0,1.0,43,0.00,,,0.00,Wunderground v.1.15,2013-03-05 16:45:00,
2013-03-05 09:50:00,53.4,30.9,30.28,NNW,340,1.0,2.0,42,0.00,,,0.00,Wunderground v.1.15,2013-03-05 16:50:00,
2013-03-05 09:55:00,54.1,31.5,30.28,NNW,340,1.0,2.0,42,0.00,,,0.00,Wunderground v.1.15,2013-03-05 16:55:00,
2013-03-05 10:00:00,54.9,29.7,30.28,NNW,340,1.0,3.0,38,0.00,,,0.00,Wunderground v.1.15,2013-03-05 17:00:00,
2013-03-05 10:10:00,55.7,29.8,30.28,NNW,345,3.0,4.0,37,0.00,,,0.00,Wunderground v.1.15,2013-03-05 17:10:00,
2013-03-05 10:20:00,57.0,29.6,30.28,NNW,343,3.0,3.0,35,0.00,,,0.00,Wunderground v.1.15,2013-03-05 17:20:00,
2013-03-05 10:25:00,57.5,28.6,30.28,North,9,4.0,4.0,33,0.00,,,0.00,Wunderground v.1.15,2013-03-05 17:25:00,
2013-03-05 10:30:00,57.7,28.0,30.28,NNE,13,3.0,3.0,32,0.00,,,0.00,Wunderground v.1.15,2013-03-05 17:30:00,
2013-03-05 10:40:00,60.0,28.4,30.28,North,5,3.0,5.0,30,0.00,,,0.00,Wunderground v.1.15,2013-03-05 17:40:00,
2013-03-05 10:45:00,61.3,27.9,30.28,NNE,32,4.0,5.0,28,0.00,,,0.00,Wunderground v.1.15,2013-03-05 17:45:00,
2013-03-05 10:50:00,62.0,27.6,30.28,NE,44,4.0,4.0,27,0.00,,,0.00,Wunderground v.1.15,2013-03-05 17:50:00,
2013-03-05 10:55:00,62.6,28.1,30.28,ENE,76,5.0,5.0,27,0.00,,,0.00,Wunderground v.1.15,2013-03-05 17:55:00,
2013-03-05 11:00:00,63.0,27.5,30.28,NNE,29,5.0,7.0,26,0.00,,,0.00,Wunderground v.1.15,2013-03-05 18:00:00,
2013-03-05 11:10:00,64.2,25.6,30.28,East,99,7.0,13.0,23,0.00,,,0.00,Wunderground v.1.15,2013-03-05 18:10:00,
2013-03-05 11:20:00,66.2,25.1,30.28,East,94,14.0,14.0,21,0.00,,,0.00,Wunderground v.1.15,2013-03-05 18:20:00,
2013-03-05 11:25:00,66.0,24.9,30.28,East,82,13.0,14.0,21,0.00,,,0.00,Wunderground v.1.15,2013-03-05 18:25:00,
2013-03-05 11:35:00,67.0,24.6,30.28,East,88,13.0,13.0,20,0.00,,,0.00,Wunderground v.1.15,2013-03-05 18:35:00,
2013-03-05 11:40:00,66.7,25.5,30.28,East,93,14.0,14.0,21,0.00,,,0.00,Wunderground v.1.15,2013-03-05 18:40:00,
2013-03-05 11:45:00,66.7,24.3,30.28,ENE,69,14.0,14.0,20,0.00,,,0.00,Wunderground v.1.15,2013-03-05 18:45:00,
2013-03-05 11:55:00,67.5,25.0,30.28,SE,125,11.0,13.0,20,0.00,,,0.00,Wunderground v.1.15,2013-03-05 18:55:00,
2013-03-05 12:00:00,67.9,24.1,30.28,East,81,11.0,16.0,19,0.00,,,0.00,Wunderground v.1.15,2013-03-05 19:00:00,
2013-03-05 12:10:00,68.3,24.4,30.28,East,100,13.0,13.0,19,0.00,,,0.00,Wunderground v.1.15,2013-03-05 19:10:00,
2013-03-05 12:15:00,68.6,22.0,30.28,SE,127,11.0,13.0,17,0.00,,,0.00,Wunderground v.1.15,2013-03-05 19:15:00,
2013-03-05 12:25:00,68.5,20.5,30.28,East,99,15.0,16.0,16,0.00,,,0.00,Wunderground v.1.15,2013-03-05 19:25:00,
2013-03-05 12:30:00,68.7,20.6,30.28,East,84,13.0,13.0,16,0.00,,,0.00,Wunderground v.1.15,2013-03-05 19:30:00,
2013-03-05 12:35:00,68.5,19.0,30.28,ESE,119,12.0,13.0,15,0.00,,,0.00,Wunderground v.1.15,2013-03-05 19:35:00,
2013-03-05 12:40:00,68.3,20.3,30.28,ESE,116,13.0,16.0,16,0.00,,,0.00,Wunderground v.1.15,2013-03-05 19:40:00,
2013-03-05 12:45:00,68.8,17.6,30.28,East,101,14.0,16.0,14,0.00,,,0.00,Wunderground v.1.15,2013-03-05 19:45:00,
2013-03-05 12:50:00,69.2,17.9,30.28,ESE,113,14.0,14.0,14,0.00,,,0.00,Wunderground v.1.15,2013-03-05 19:50:00,
2013-03-05 12:55:00,69.0,17.8,30.28,ESE,107,12.0,14.0,14,0.00,,,0.00,Wunderground v.1.15,2013-03-05 19:55:00,
2013-03-05 13:00:00,68.8,17.6,30.28,SE,128,10.0,10.0,14,0.00,,,0.00,Wunderground v.1.15,2013-03-05 20:00:00,
2013-03-05 13:10:00,68.6,17.4,30.28,East,92,11.0,18.0,14,0.00,,,0.00,Wunderground v.1.15,2013-03-05 20:10:00,
2013-03-05 13:15:00,69.7,18.3,30.28,SE,144,12.0,18.0,14,0.00,,,0.00,Wunderground v.1.15,2013-03-05 20:15:00,
2013-03-05 13:20:00,69.9,18.5,30.28,East,84,12.0,13.0,14,0.00,,,0.00,Wunderground v.1.15,2013-03-05 20:20:00,
2013-03-05 13:30:00,70.3,18.8,30.28,ESE,119,12.0,12.0,14,0.00,,,0.00,Wunderground v.1.15,2013-03-05 20:30:00,
2013-03-05 13:35:00,70.1,18.6,30.28,East,88,12.0,16.0,14,0.00,,,0.00,Wunderground v.1.15,2013-03-05 20:35:00,
2013-03-05 13:45:00,70.2,18.7,30.28,SE,134,9.0,13.0,14,0.00,,,0.00,Wunderground v.1.15,2013-03-05 20:45:00,
2013-03-05 13:50:00,70.5,20.6,30.28,SE,143,9.0,12.0,15,0.00,,,0.00,Wunderground v.1.15,2013-03-05 20:50:00,
2013-03-05 13:55:00,70.7,20.7,30.28,ESE,108,9.0,12.0,15,0.00,,,0.00,Wunderground v.1.15,2013-03-05 20:55:00,
2013-03-05 14:00:00,70.4,20.5,30.28,East,101,10.0,10.0,15,0.00,,,0.00,Wunderground v.1.15,2013-03-05 21:00:00,
2013-03-05 14:10:00,70.7,17.4,30.28,ESE,103,12.0,17.0,13,0.00,,,0.00,Wunderground v.1.15,2013-03-05 21:10:00,
2013-03-05 14:15:00,70.1,15.1,30.28,ESE,121,13.0,17.0,12,0.00,,,0.00,Wunderground v.1.15,2013-03-05 21:15:00,
2013-03-05 14:20:00,70.4,18.9,30.28,East,83,12.0,16.0,14,0.00,,,0.00,Wunderground v.1.15,2013-03-05 21:20:00,
2013-03-05 14:30:00,71.5,18.0,30.28,East,90,13.0,13.0,13,0.00,,,0.00,Wunderground v.1.15,2013-03-05 21:30:00,
2013-03-05 14:35:00,71.6,18.1,30.28,ESE,123,11.0,14.0,13,0.00,,,0.00,Wunderground v.1.15,2013-03-05 21:35:00,
2013-03-05 14:40:00,71.7,16.3,30.28,ESE,111,11.0,11.0,12,0.00,,,0.00,Wunderground v.1.15,2013-03-05 21:40:00,
2013-03-05 14:45:00,71.7,18.2,30.28,East,93,11.0,11.0,13,0.00,,,0.00,Wunderground v.1.15,2013-03-05 21:45:00,
2013-03-05 14:55:00,71.1,15.9,30.28,East,97,11.0,11.0,12,0.00,,,0.00,Wunderground v.1.15,2013-03-05 21:55:00,
2013-03-05 15:00:00,71.0,13.8,30.28,SE,130,10.0,11.0,11,0.00,,,0.00,Wunderground v.1.15,2013-03-05 22:00:00,
2013-03-05 15:10:00,70.4,17.2,30.28,East,96,10.0,10.0,13,0.00,,,0.00,Wunderground v.1.15,2013-03-05 22:10:00,
2013-03-05 15:15:00,70.7,15.5,30.28,ENE,78,10.0,13.0,12,0.00,,,0.00,Wunderground v.1.15,2013-03-05 22:15:00,
2013-03-05 15:20:00,71.0,19.4,30.28,ESE,113,12.0,13.0,14,0.00,,,0.00,Wunderground v.1.15,2013-03-05 22:20:00,
2013-03-05 15:30:00,70.5,20.6,30.28,ESE,121,13.0,15.0,15,0.00,,,0.00,Wunderground v.1.15,2013-03-05 22:30:00,
2013-03-05 15:35:00,70.7,19.1,30.28,ESE,110,12.0,15.0,14,0.00,,,0.00,Wunderground v.1.15,2013-03-05 22:35:00,
2013-03-05 15:40:00,70.5,19.0,30.28,East,80,11.0,14.0,14,0.00,,,0.00,Wunderground v.1.15,2013-03-05 22:40:00,
2013-03-05 15:45:00,70.5,19.0,30.28,SE,144,9.0,14.0,14,0.00,,,0.00,Wunderground v.1.15,2013-03-05 22:45:00,
2013-03-05 15:50:00,70.8,19.2,30.28,ESE,104,9.0,9.0,14,0.00,,,0.00,Wunderground v.1.15,2013-03-05 22:50:00,
2013-03-05 15:55:00,70.3,20.4,30.28,SE,128,8.0,9.0,15,0.00,,,0.00,Wunderground v.1.15,2013-03-05 22:55:00,
2013-03-05 16:00:00,69.9,18.5,30.28,ESE,105,5.0,5.0,14,0.00,,,0.00,Wunderground v.1.15,2013-03-05 23:00:00,
2013-03-05 16:10:00,70.0,18.6,30.28,ESE,115,9.0,9.0,14,0.00,,,0.00,Wunderground v.1.15,2013-03-05 23:10:00,
2013-03-05 16:15:00,70.0,18.6,30.28,East,99,8.0,9.0,14,0.00,,,0.00,Wunderground v.1.15,2013-03-05 23:15:00,
2013-03-05 16:20:00,70.1,18.6,30.28,ESE,114,8.0,8.0,14,0.00,,,0.00,Wunderground v.1.15,2013-03-05 23:20:00,
2013-03-05 16:25:00,69.9,18.5,30.28,ESE,108,9.0,10.0,14,0.00,,,0.00,Wunderground v.1.15,2013-03-05 23:25:00,
2013-03-05 16:30:00,69.7,18.3,30.28,East,98,9.0,9.0,14,0.00,,,0.00,Wunderground v.1.15,2013-03-05 23:30:00,
2013-03-05 16:35:00,69.8,18.4,30.28,East,101,8.0,9.0,14,0.00,,,0.00,Wunderground v.1.15,2013-03-05 23:35:00,
2013-03-05 16:40:00,69.9,20.1,30.28,East,101,8.0,9.0,15,0.00,,,0.00,Wunderground v.1.15,2013-03-05 23:40:00,
2013-03-05 16:45:00,69.7,19.9,30.28,SE,128,8.0,9.0,15,0.00,,,0.00,Wunderground v.1.15,2013-03-05 23:45:00,
2013-03-05 16:55:00,69.2,19.5,30.28,East,83,7.0,9.0,15,0.00,,,0.00,Wunderground v.1.15,2013-03-05 23:55:00,
2013-03-05 17:00:00,69.0,19.4,30.28,ENE,78,5.0,5.0,15,0.00,,,0.00,Wunderground v.1.15,2013-03-06 00:00:00,
2013-03-05 17:10:00,68.8,20.7,30.28,ESE,109,4.0,4.0,16,0.00,,,0.00,Wunderground v.1.15,2013-03-06 00:10:00,
2013-03-05 17:20:00,68.7,20.6,30.28,ESE,103,7.0,9.0,16,0.00,,,0.00,Wunderground v.1.15,2013-03-06 00:20:00,
2013-03-05 17:25:00,68.6,20.6,30.28,East,101,8.0,9.0,16,0.00,,,0.00,Wunderground v.1.15,2013-03-06 00:25:00,
2013-03-05 17:30:00,68.4,20.4,30.28,East,98,7.0,7.0,16,0.00,,,0.00,Wunderground v.1.15,2013-03-06 00:30:00,
2013-03-05 17:35:00,68.2,20.2,30.28,ESE,115,6.0,7.0,16,0.00,,,0.00,Wunderground v.1.15,2013-03-06 00:35:00,
2013-03-05 17:45:00,67.6,21.2,30.28,ESE,106,4.0,5.0,17,0.00,,,0.00,Wunderground v.1.15,2013-03-06 00:45:00,
2013-03-05 17:50:00,67.3,20.9,30.28,ESE,106,3.0,3.0,17,0.00,,,0.00,Wunderground v.1.15,2013-03-06 00:50:00,
2013-03-05 17:55:00,66.9,20.6,30.28,ESE,106,2.0,3.0,17,0.00,,,0.00,Wunderground v.1.15,2013-03-06 00:55:00,
2013-03-05 18:00:00,66.4,21.6,30.28,ESE,106,1.0,2.0,18,0.00,,,0.00,Wunderground v.1.15,2013-03-06 01:00:00,
2013-03-05 18:10:00,65.6,20.9,30.28,ESE,106,1.0,1.0,18,0.00,,,0.00,Wunderground v.1.15,2013-03-06 01:10:00,
2013-03-05 18:15:00,65.0,21.7,30.28,SE,134,0.0,1.0,19,0.00,,,0.00,Wunderground v.1.15,2013-03-06 01:15:00,
2013-03-05 18:25:00,64.3,21.1,30.28,SE,140,1.0,1.0,19,0.00,,,0.00,Wunderground v.1.15,2013-03-06 01:25:00,
2013-03-05 18:30:00,64.1,20.9,30.28,SE,140,0.0,0.0,19,0.00,,,0.00,Wunderground v.1.15,2013-03-06 01:30:00,
2013-03-05 18:35:00,63.8,20.7,30.28,SE,140,0.0,0.0,19,0.00,,,0.00,Wunderground v.1.15,2013-03-06 01:35:00,
2013-03-05 18:40:00,63.2,21.4,30.28,SE,141,1.0,1.0,20,0.00,,,0.00,Wunderground v.1.15,2013-03-06 01:40:00,
2013-03-05 18:45:00,62.8,21.1,30.28,SE,142,1.0,1.0,20,0.00,,,0.00,Wunderground v.1.15,2013-03-06 01:45:00,
2013-03-05 18:50:00,62.4,20.8,30.28,SSE,149,1.0,1.0,20,0.00,,,0.00,Wunderground v.1.15,2013-03-06 01:50:00,
2013-03-05 18:55:00,62.5,20.8,30.28,SSE,167,1.0,1.0,20,0.00,,,0.00,Wunderground v.1.15,2013-03-06 01:55:00,
2013-03-05 19:00:00,63.1,21.3,30.28,South,178,2.0,4.0,20,0.00,,,0.00,Wunderground v.1.15,2013-03-06 02:00:00,
2013-03-05 19:10:00,63.4,20.4,30.28,SSW,198,5.0,8.0,19,0.00,,,0.00,Wunderground v.1.15,2013-03-06 02:10:00,
2013-03-05 19:15:00,64.0,20.9,30.28,SSW,196,7.0,8.0,19,0.00,,,0.00,Wunderground v.1.15,2013-03-06 02:15:00,
2013-03-05 19:25:00,63.7,20.6,30.28,SSW,194,4.0,6.0,19,0.00,,,0.00,Wunderground v.1.15,2013-03-06 02:25:00,
2013-03-05 19:30:00,63.4,20.4,30.28,SSW,194,4.0,4.0,19,0.00,,,0.00,Wunderground v.1.15,2013-03-06 02:30:00,
2013-03-05 19:35:00,62.9,21.2,30.28,SSW,193,4.0,5.0,20,0.00,,,0.00,Wunderground v.1.15,2013-03-06 02:35:00,
2013-03-05 19:45:00,61.8,21.4,30.28,South,186,5.0,5.0,21,0.00,,,0.00,Wunderground v.1.15,2013-03-06 02:45:00,
2013-03-05 19:50:00,61.4,22.2,30.28,South,190,5.0,5.0,22,0.00,,,0.00,Wunderground v.1.15,2013-03-06 02:50:00,
2013-03-05 19:55:00,61.5,22.3,30.28,South,183,5.0,7.0,22,0.00,,,0.00,Wunderground v.1.15,2013-03-06 02:55:00,
2013-03-05 20:00:00,61.5,22.3,30.28,South,184,5.0,5.0,22,0.00,,,0.00,Wunderground v.1.15,2013-03-06 03:00:00,
2013-03-05 20:10:00,61.4,22.2,30.28,South,177,2.0,2.0,22,0.00,,,0.00,Wunderground v.1.15,2013-03-06 03:10:00,
2013-03-05 20:15:00,61.2,22.0,30.28,South,179,3.0,8.0,22,0.00,,,0.00,Wunderground v.1.15,2013-03-06 03:15:00,
2013-03-05 20:25:00,61.3,22.1,30.28,South,174,3.0,3.0,22,0.00,,,0.00,Wunderground v.1.15,2013-03-06 03:25:00,
2013-03-05 20:30:00,61.6,23.4,30.28,South,172,2.0,2.0,23,0.00,,,0.00,Wunderground v.1.15,2013-03-06 03:30:00,
2013-03-05 20:35:00,61.5,22.3,30.28,SE,128,1.0,5.0,22,0.00,,,0.00,Wunderground v.1.15,2013-03-06 03:35:00,
2013-03-05 20:40:00,60.9,22.8,30.28,SE,124,3.0,4.0,23,0.00,,,0.00,Wunderground v.1.15,2013-03-06 03:40:00,
2013-03-05 20:45:00,60.3,23.3,30.28,SSE,150,4.0,4.0,24,0.00,,,0.00,Wunderground v.1.15,2013-03-06 03:45:00,
2013-03-05 20:50:00,60.2,22.2,30.28,SE,136,4.0,6.0,23,0.00,,,0.00,Wunderground v.1.15,2013-03-06 03:50:00,
2013-03-05 21:00:00,60.3,22.3,30.28,SE,134,4.0,4.0,23,0.00,,,0.00,Wunderground v.1.15,2013-03-06 04:00:00,
2013-03-05 21:10:00,60.7,22.6,30.28,ESE,123,5.0,8.0,23,0.00,,,0.00,Wunderground v.1.15,2013-03-06 04:10:00,
2013-03-05 21:20:00,60.4,22.4,30.28,SSE,150,4.0,4.0,23,0.00,,,0.00,Wunderground v.1.15,2013-03-06 04:20:00,
2013-03-05 21:25:00,60.5,22.5,30.28,SSE,154,3.0,4.0,23,0.00,,,0.00,Wunderground v.1.15,2013-03-06 04:25:00,
2013-03-05 21:30:00,60.9,22.8,30.28,SSE,159,2.0,2.0,23,0.00,,,0.00,Wunderground v.1.15,2013-03-06 04:30:00,
2013-03-05 21:35:00,61.3,22.1,30.28,SSE,159,1.0,2.0,22,0.00,,,0.00,Wunderground v.1.15,2013-03-06 04:35:00,
2013-03-05 21:40:00,62.1,22.8,30.28,SSE,167,1.0,2.0,22,0.00,,,0.00,Wunderground v.1.15,2013-03-06 04:40:00,
2013-03-05 21:45:00,62.4,21.9,30.28,South,184,1.0,2.0,21,0.00,,,0.00,Wunderground v.1.15,2013-03-06 04:45:00,
2013-03-05 21:55:00,58.9,28.3,30.28,NW,311,2.0,4.0,31,0.00,,,0.00,Wunderground v.1.15,2013-03-06 04:55:00,
2013-03-05 22:00:00,56.9,28.1,30.28,NNW,346,3.0,6.0,33,0.00,,,0.00,Wunderground v.1.15,2013-03-06 05:00:00,
2013-03-05 22:05:00,55.8,25.6,30.28,North,360,5.0,6.0,31,0.00,,,0.00,Wunderground v.1.15,2013-03-06 05:05:00,
2013-03-05 22:10:00,55.2,26.6,30.28,North,355,5.0,5.0,33,0.00,,,0.00,Wunderground v.1.15,2013-03-06 05:10:00,
2013-03-05 22:20:00,54.4,26.6,30.28,North,355,3.0,3.0,34,0.00,,,0.00,Wunderground v.1.15,2013-03-06 05:20:00,
2013-03-05 22:25:00,54.2,26.4,30.28,North,355,2.0,3.0,34,0.00,,,0.00,Wunderground v.1.15,2013-03-06 05:25:00,
2013-03-05 22:35:00,54.2,24.9,30.28,North,355,0.0,1.0,32,0.00,,,0.00,Wunderground v.1.15,2013-03-06 05:35:00,
2013-03-05 22:40:00,54.2,24.2,30.28,North,355,0.0,0.0,31,0.00,,,0.00,Wunderground v.1.15,2013-03-06 05:40:00,
2013-03-05 22:45:00,54.3,24.3,30.28,North,355,0.0,0.0,31,0.00,,,0.00,Wunderground v.1.15,2013-03-06 05:45:00,
2013-03-05 22:50:00,54.1,24.1,30.28,North,355,0.0,0.0,31,0.00,,,0.00,Wunderground v.1.15,2013-03-06 05:50:00,
2013-03-05 22:55:00,53.8,24.6,30.28,WSW,240,2.0,4.0,32,0.00,,,0.00,Wunderground v.1.15,2013-03-06 05:55:00,
2013-03-05 23:00:00,53.4,23.5,30.28,SW,235,3.0,3.0,31,0.00,,,0.00,Wunderground v.1.15,2013-03-06 06:00:00,
2013-03-05 23:10:00,53.2,23.3,30.28,SW,223,3.0,7.0,31,0.00,,,0.00,Wunderground v.1.15,2013-03-06 06:10:00,
2013-03-05 23:15:00,53.5,23.6,30.28,South,188,4.0,7.0,31,0.00,,,0.00,Wunderground v.1.15,2013-03-06 06:15:00,
2013-03-05 23:25:00,54.0,23.2,30.28,South,178,2.0,3.0,30,0.00,,,0.00,Wunderground v.1.15,2013-03-06 06:25:00,
2013-03-05 23:30:00,54.5,23.7,30.28,SW,215,2.0,4.0,30,0.00,,,0.00,Wunderground v.1.15,2013-03-06 06:30:00,
2013-03-05 23:35:00,54.4,22.8,30.28,South,184,1.0,4.0,29,0.00,,,0.00,Wunderground v.1.15,2013-03-06 06:35:00,
2013-03-05 23:45:00,54.7,23.0,30.28,SW,236,1.0,1.0,29,0.00,,,0.00,Wunderground v.1.15,2013-03-06 06:45:00,
2013-03-05 23:50:00,54.6,22.9,30.28,SSW,211,1.0,1.0,29,0.00,,,0.00,Wunderground v.1.15,2013-03-06 06:50:00,
2013-03-05 23:55:00,54.6,22.9,30.28,SSW,211,1.0,1.0,29,0.00,,,0.00,Wunderground v.1.15,2013-03-06 06:55:00,